createdAt,value
2022-08-04T00:00:35.879Z,111.46
2022-08-04T00:01:35.904Z,109.84
2022-08-04T00:02:36.904Z,111.78
2022-08-04T00:03:35.869Z,111.13
2022-08-04T00:04:36.756Z,111.78
2022-08-04T00:05:35.922Z,111.46
2022-08-04T00:06:36.571Z,111.46
2022-08-04T00:07:44.167Z,111.46
2022-08-04T00:08:37.000Z,111.46
2022-08-04T00:09:35.830Z,111.46
2022-08-04T00:10:35.794Z,111.46
2022-08-04T00:11:36.570Z,111.13
2022-08-04T00:12:39.557Z,109.84
2022-08-04T00:13:35.810Z,111.78
2022-08-04T00:14:35.740Z,111.46
2022-08-04T00:15:35.773Z,111.46
2022-08-04T00:16:38.808Z,110.81
2022-08-04T00:17:35.851Z,111.13
2022-08-04T00:18:35.977Z,111.78
2022-08-04T00:19:36.361Z,111.46
2022-08-04T00:20:35.662Z,111.46
2022-08-04T00:21:35.872Z,111.46
2022-08-04T00:22:36.520Z,111.46
2022-08-04T00:24:10.610Z,111.78
2022-08-04T00:24:36.689Z,111.78
2022-08-04T00:25:35.722Z,111.78
2022-08-04T00:26:35.540Z,111.78
2022-08-04T00:27:36.383Z,111.78
2022-08-04T00:28:35.702Z,111.13
2022-08-04T00:29:35.529Z,111.13
2022-08-04T00:30:35.552Z,111.13
2022-08-04T00:31:55.980Z,111.78
2022-08-04T00:32:36.462Z,111.46
2022-08-04T00:33:35.495Z,111.46
2022-08-04T00:34:35.472Z,110.81
2022-08-04T00:35:35.431Z,111.13
2022-08-04T00:36:35.422Z,111.46
2022-08-04T00:37:35.401Z,111.13
2022-08-04T00:38:35.391Z,110.81
2022-08-04T00:39:35.488Z,111.78
2022-08-04T00:40:35.360Z,111.46
2022-08-04T00:41:35.342Z,111.13
2022-08-04T00:42:36.334Z,111.46
2022-08-04T00:43:35.320Z,111.13
2022-08-04T00:44:35.339Z,110.81
2022-08-04T00:45:35.708Z,109.84
2022-08-04T00:46:36.280Z,111.46
2022-08-04T00:47:35.266Z,109.52
2022-08-04T00:48:35.260Z,111.46
2022-08-04T00:49:35.270Z,111.46
2022-08-04T00:50:35.245Z,111.13
2022-08-04T00:51:35.238Z,109.84
2022-08-04T00:52:35.218Z,111.46
2022-08-04T00:53:35.264Z,111.78
2022-08-04T00:54:35.212Z,111.46
2022-08-04T00:55:35.170Z,111.46
2022-08-04T00:56:35.162Z,111.46
2022-08-04T00:57:35.157Z,111.78
2022-08-04T00:58:35.133Z,111.46
2022-08-04T00:59:35.143Z,111.13
2022-08-04T01:00:35.130Z,109.52
2022-08-04T01:01:35.120Z,111.13
2022-08-04T01:02:35.083Z,109.52
2022-08-04T01:03:35.063Z,111.46
2022-08-04T01:04:35.353Z,111.46
2022-08-04T01:05:37.542Z,111.46
2022-08-04T01:06:35.114Z,111.46
2022-08-04T01:07:35.850Z,111.78
2022-08-04T01:08:35.002Z,111.78
2022-08-04T01:09:35.013Z,111.46
2022-08-04T01:10:34.974Z,111.46
2022-08-04T01:11:56.624Z,110.81
2022-08-04T01:12:35.943Z,110.81
2022-08-04T01:13:35.003Z,111.46
2022-08-04T01:14:34.946Z,111.46
2022-08-04T01:15:53.840Z,111.46
2022-08-04T01:16:35.892Z,111.13
2022-08-04T01:17:34.875Z,111.46
2022-08-04T01:18:34.893Z,110.81
2022-08-04T01:19:34.885Z,111.46
2022-08-04T01:20:34.846Z,111.13
2022-08-04T01:21:34.843Z,111.46
2022-08-04T01:22:34.818Z,111.46
2022-08-04T01:23:34.795Z,111.46
2022-08-04T01:24:34.814Z,111.46
2022-08-04T01:25:35.699Z,111.46
2022-08-04T01:26:42.378Z,111.46
2022-08-04T01:27:35.751Z,111.13
2022-08-04T01:28:34.734Z,111.46
2022-08-04T01:29:44.102Z,111.13
2022-08-04T01:30:35.711Z,111.46
2022-08-04T01:31:34.694Z,111.46
2022-08-04T01:32:34.684Z,111.46
2022-08-04T01:34:03.601Z,111.78
2022-08-04T01:34:35.683Z,111.13
2022-08-04T01:35:47.536Z,111.46
2022-08-04T01:36:35.695Z,111.78
2022-08-04T01:37:34.624Z,111.46
2022-08-04T01:38:34.605Z,111.78
2022-08-04T01:39:34.633Z,109.52
2022-08-04T01:40:34.606Z,111.13
2022-08-04T01:41:34.565Z,110.81
2022-08-04T01:42:34.566Z,111.13
2022-08-04T01:43:34.579Z,111.78
2022-08-04T01:44:34.546Z,111.46
2022-08-04T01:45:34.544Z,110.81
2022-08-04T01:46:34.496Z,111.46
2022-08-04T01:47:34.485Z,111.46
2022-08-04T01:48:34.472Z,111.46
2022-08-04T01:49:40.787Z,110.49
2022-08-04T01:50:35.547Z,111.46
2022-08-04T01:51:34.437Z,111.46
2022-08-04T01:52:34.416Z,110.49
2022-08-04T01:53:34.455Z,111.13
2022-08-04T01:54:34.408Z,110.49
2022-08-04T01:55:54.101Z,111.46
2022-08-04T01:56:35.386Z,111.46
2022-08-04T01:57:37.674Z,111.46
2022-08-04T01:58:34.376Z,111.46
2022-08-04T01:59:34.338Z,110.81
2022-08-04T02:00:34.335Z,111.46
2022-08-04T02:01:34.444Z,111.78
2022-08-04T02:02:34.360Z,111.13
2022-08-04T02:04:21.937Z,110.81
2022-08-04T02:04:35.267Z,111.13
2022-08-04T02:06:03.430Z,111.46
2022-08-04T02:06:35.242Z,111.46
2022-08-04T02:07:34.268Z,111.13
2022-08-04T02:08:34.214Z,111.46
2022-08-04T02:09:34.204Z,111.46
2022-08-04T02:10:35.211Z,110.49
2022-08-04T02:11:34.176Z,111.46
2022-08-04T02:12:34.166Z,110.81
2022-08-04T02:13:34.154Z,111.46
2022-08-04T02:14:34.136Z,110.81
2022-08-04T02:15:34.156Z,111.46
2022-08-04T02:16:34.108Z,110.81
2022-08-04T02:17:34.097Z,111.46
2022-08-04T02:18:34.089Z,111.46
2022-08-04T02:19:34.067Z,111.13
2022-08-04T02:20:34.104Z,111.46
2022-08-04T02:21:42.335Z,111.13
2022-08-04T02:22:35.028Z,111.13
2022-08-04T02:23:34.021Z,110.49
2022-08-04T02:24:34.007Z,110.81
2022-08-04T02:25:34.027Z,110.81
2022-08-04T02:26:33.978Z,111.13
2022-08-04T02:27:59.177Z,111.46
2022-08-04T02:28:34.954Z,111.46
2022-08-04T02:29:33.938Z,108.88
2022-08-04T02:30:33.971Z,111.13
2022-08-04T02:31:33.918Z,111.46
2022-08-04T02:32:33.912Z,111.13
2022-08-04T02:33:33.897Z,110.81
2022-08-04T02:34:33.898Z,110.81
2022-08-04T02:35:33.887Z,111.13
2022-08-04T02:36:33.859Z,111.46
2022-08-04T02:37:33.828Z,111.46
2022-08-04T02:38:33.825Z,110.81
2022-08-04T02:39:41.402Z,110.81
2022-08-04T02:40:34.829Z,110.81
2022-08-04T02:41:33.778Z,110.81
2022-08-04T02:42:33.790Z,110.81
2022-08-04T02:43:51.435Z,111.78
2022-08-04T02:44:34.748Z,111.13
2022-08-04T02:45:33.758Z,109.20
2022-08-04T02:46:33.718Z,111.13
2022-08-04T02:48:29.656Z,111.13
2022-08-04T02:48:34.696Z,110.81
2022-08-04T02:49:34.438Z,110.81
2022-08-04T02:50:33.700Z,111.46
2022-08-04T02:51:33.650Z,111.13
2022-08-04T02:52:33.640Z,110.81
2022-08-04T02:53:33.629Z,110.81
2022-08-04T02:54:33.914Z,110.81
2022-08-04T02:55:33.629Z,111.13
2022-08-04T02:56:33.595Z,111.46
2022-08-04T02:57:33.579Z,111.13
2022-08-04T02:58:33.567Z,111.46
2022-08-04T02:59:33.559Z,110.81
2022-08-04T03:00:33.573Z,110.49
2022-08-04T03:01:33.557Z,111.13
2022-08-04T03:02:33.513Z,111.13
2022-08-04T03:03:33.500Z,111.13
2022-08-04T03:04:33.487Z,110.49
2022-08-04T03:05:49.975Z,111.13
2022-08-04T03:06:34.461Z,111.46
2022-08-04T03:07:33.457Z,111.13
2022-08-04T03:08:33.431Z,110.81
2022-08-04T03:09:35.318Z,111.13
2022-08-04T03:10:33.380Z,111.13
2022-08-04T03:11:33.394Z,110.81
2022-08-04T03:12:33.379Z,110.81
2022-08-04T03:13:33.370Z,111.13
2022-08-04T03:14:33.309Z,110.81
2022-08-04T03:15:33.338Z,110.81
2022-08-04T03:16:36.720Z,110.81
2022-08-04T03:17:34.311Z,111.13
2022-08-04T03:18:33.329Z,111.46
2022-08-04T03:19:33.240Z,111.13
2022-08-04T03:20:33.249Z,111.13
2022-08-04T03:21:33.215Z,111.13
2022-08-04T03:22:33.197Z,111.13
2022-08-04T03:23:33.188Z,110.81
2022-08-04T03:24:33.232Z,111.46
2022-08-04T03:25:33.200Z,111.13
2022-08-04T03:26:33.160Z,111.13
2022-08-04T03:27:33.120Z,110.81
2022-08-04T03:28:33.131Z,111.13
2022-08-04T03:29:36.378Z,111.78
2022-08-04T03:30:33.119Z,108.88
2022-08-04T03:31:33.070Z,111.13
2022-08-04T03:32:33.065Z,110.81
2022-08-04T03:33:33.049Z,111.46
2022-08-04T03:34:33.040Z,111.46
2022-08-04T03:35:33.053Z,111.46
2022-08-04T03:36:33.011Z,110.49
2022-08-04T03:37:33.008Z,110.49
2022-08-04T03:38:32.981Z,111.46
2022-08-04T03:39:33.053Z,111.13
2022-08-04T03:40:32.988Z,109.20
2022-08-04T03:41:51.324Z,111.13
2022-08-04T03:42:33.935Z,111.13
2022-08-04T03:43:57.545Z,111.13
2022-08-04T03:44:33.914Z,111.13
2022-08-04T03:45:32.913Z,111.13
2022-08-04T03:46:32.883Z,110.17
2022-08-04T03:47:32.868Z,111.13
2022-08-04T03:48:32.850Z,110.81
2022-08-04T03:49:32.858Z,111.46
2022-08-04T03:50:32.861Z,110.81
2022-08-04T03:51:35.851Z,111.13
2022-08-04T03:52:32.803Z,111.13
2022-08-04T03:53:32.781Z,111.13
2022-08-04T03:54:32.781Z,111.13
2022-08-04T03:55:32.783Z,110.49
2022-08-04T03:56:32.750Z,110.81
2022-08-04T03:57:32.731Z,111.13
2022-08-04T03:58:33.932Z,110.81
2022-08-04T03:59:32.702Z,111.13
2022-08-04T04:00:32.723Z,111.13
2022-08-04T04:02:01.621Z,111.46
2022-08-04T04:02:33.706Z,110.81
2022-08-04T04:03:32.659Z,110.81
2022-08-04T04:04:32.644Z,108.88
2022-08-04T04:05:34.299Z,110.81
2022-08-04T04:06:33.616Z,111.13
2022-08-04T04:07:36.183Z,110.81
2022-08-04T04:08:32.592Z,111.46
2022-08-04T04:09:57.505Z,111.46
2022-08-04T04:10:33.595Z,110.49
2022-08-04T04:11:32.542Z,110.81
2022-08-04T04:12:32.531Z,111.13
2022-08-04T04:13:32.521Z,111.13
2022-08-04T04:14:32.512Z,110.17
2022-08-04T04:15:32.511Z,110.49
2022-08-04T04:16:32.496Z,111.13
2022-08-04T04:17:32.462Z,110.81
2022-08-04T04:18:32.454Z,111.13
2022-08-04T04:19:32.444Z,110.81
2022-08-04T04:20:32.461Z,110.49
2022-08-04T04:21:32.412Z,111.13
2022-08-04T04:22:35.399Z,110.81
2022-08-04T04:23:33.383Z,111.13
2022-08-04T04:24:33.635Z,110.49
2022-08-04T04:25:32.382Z,111.13
2022-08-04T04:26:32.353Z,111.13
2022-08-04T04:27:32.333Z,111.13
2022-08-04T04:28:44.927Z,110.81
2022-08-04T04:29:33.308Z,110.81
2022-08-04T04:30:32.332Z,111.13
2022-08-04T04:31:32.352Z,110.81
2022-08-04T04:32:32.271Z,111.46
2022-08-04T04:33:32.253Z,110.81
2022-08-04T04:34:32.242Z,111.13
2022-08-04T04:35:32.252Z,111.46
2022-08-04T04:36:32.261Z,111.13
2022-08-04T04:37:32.194Z,111.13
2022-08-04T04:38:32.374Z,110.81
2022-08-04T04:39:33.215Z,111.13
2022-08-04T04:40:32.197Z,110.49
2022-08-04T04:41:32.163Z,111.46
2022-08-04T04:42:32.154Z,110.17
2022-08-04T04:43:51.247Z,111.13
2022-08-04T04:44:33.113Z,111.46
2022-08-04T04:45:32.113Z,110.81
2022-08-04T04:46:32.091Z,111.13
2022-08-04T04:48:07.384Z,111.46
2022-08-04T04:48:33.064Z,111.46
2022-08-04T04:49:32.050Z,110.49
2022-08-04T04:50:36.433Z,110.49
2022-08-04T04:51:32.014Z,111.46
2022-08-04T04:52:32.013Z,111.46
2022-08-04T04:53:31.995Z,110.81
2022-08-04T04:54:31.982Z,111.13
2022-08-04T04:55:32.002Z,111.13
2022-08-04T04:56:31.958Z,111.13
2022-08-04T04:57:54.416Z,111.13
2022-08-04T04:58:32.923Z,110.49
2022-08-04T04:59:31.930Z,111.13
2022-08-04T05:00:31.937Z,111.13
2022-08-04T05:01:31.891Z,110.81
2022-08-04T05:02:31.875Z,111.13
2022-08-04T05:03:31.853Z,111.13
2022-08-04T05:04:31.850Z,110.49
2022-08-04T05:05:31.866Z,111.13
2022-08-04T05:06:31.836Z,111.46
2022-08-04T05:07:31.809Z,110.81
2022-08-04T05:08:44.231Z,110.81
2022-08-04T05:09:32.804Z,110.81
2022-08-04T05:10:31.802Z,110.81
2022-08-04T05:11:31.764Z,111.46
2022-08-04T05:14:30.984Z,111.13
2022-08-04T05:14:36.727Z,111.13
2022-08-04T05:14:41.084Z,109.52
2022-08-04T05:15:32.729Z,110.81
2022-08-04T05:16:31.695Z,111.46
2022-08-04T05:17:31.683Z,110.81
2022-08-04T05:18:31.665Z,110.49
2022-08-04T05:19:31.655Z,111.13
2022-08-04T05:20:31.685Z,110.81
2022-08-04T05:21:31.626Z,111.13
2022-08-04T05:22:31.633Z,110.81
2022-08-04T05:23:31.595Z,111.46
2022-08-04T05:24:34.898Z,111.46
2022-08-04T05:25:31.613Z,111.13
2022-08-04T05:26:31.566Z,111.13
2022-08-04T05:27:31.546Z,111.46
2022-08-04T05:28:31.547Z,110.81
2022-08-04T05:29:31.871Z,111.13
2022-08-04T05:30:31.538Z,110.81
2022-08-04T05:31:31.496Z,111.13
2022-08-04T05:32:31.492Z,111.13
2022-08-04T05:33:31.605Z,111.46
2022-08-04T05:34:31.624Z,111.13
2022-08-04T05:35:50.510Z,111.46
2022-08-04T05:36:40.920Z,110.81
2022-08-04T05:37:33.037Z,111.13
2022-08-04T05:38:32.866Z,110.81
2022-08-04T05:39:34.475Z,111.13
2022-08-04T05:40:31.483Z,111.13
2022-08-04T05:41:44.747Z,111.46
2022-08-04T05:42:32.356Z,111.13
2022-08-04T05:43:31.356Z,111.78
2022-08-04T05:44:31.477Z,111.46
2022-08-04T05:45:39.170Z,111.46
2022-08-04T05:46:32.358Z,111.13
2022-08-04T05:47:31.359Z,111.46
2022-08-04T05:48:31.276Z,111.46
2022-08-04T05:49:31.406Z,111.46
2022-08-04T05:50:31.257Z,111.46
2022-08-04T05:51:31.268Z,110.81
2022-08-04T05:52:31.231Z,111.46
2022-08-04T05:53:31.897Z,111.13
2022-08-04T05:54:31.899Z,111.46
2022-08-04T05:55:57.129Z,111.13
2022-08-04T05:56:32.197Z,111.78
2022-08-04T05:57:31.157Z,111.46
2022-08-04T05:58:31.148Z,111.46
2022-08-04T05:59:31.128Z,111.78
2022-08-04T06:00:40.692Z,111.46
2022-08-04T06:01:32.327Z,111.46
2022-08-04T06:02:32.098Z,111.46
2022-08-04T06:03:31.083Z,111.78
2022-08-04T06:04:31.076Z,111.78
2022-08-04T06:05:31.077Z,111.46
2022-08-04T06:06:31.087Z,111.46
2022-08-04T06:07:31.034Z,111.13
2022-08-04T06:08:31.019Z,111.13
2022-08-04T06:09:30.999Z,111.46
2022-08-04T06:10:31.003Z,110.49
2022-08-04T06:11:31.018Z,111.13
2022-08-04T06:12:31.971Z,111.46
2022-08-04T06:13:47.930Z,111.46
2022-08-04T06:14:31.939Z,110.17
2022-08-04T06:15:32.047Z,111.78
2022-08-04T06:16:31.020Z,111.46
2022-08-04T06:19:57.099Z,111.46
2022-08-04T06:19:58.487Z,111.78
2022-08-04T06:19:58.715Z,111.46
2022-08-04T06:20:34.549Z,111.46
2022-08-04T06:21:30.880Z,111.13
2022-08-04T06:22:31.602Z,111.46
2022-08-04T06:23:31.589Z,111.78
2022-08-04T06:24:33.758Z,111.46
2022-08-04T06:25:30.807Z,111.78
2022-08-04T06:26:30.951Z,111.46
2022-08-04T06:27:31.571Z,111.78
2022-08-04T06:28:30.981Z,112.10
2022-08-04T06:29:30.981Z,112.10
2022-08-04T06:30:30.893Z,111.46
2022-08-04T06:32:31.425Z,111.46
2022-08-04T06:32:35.623Z,111.78
2022-08-04T06:33:31.711Z,111.46
2022-08-04T06:34:30.856Z,111.78
2022-08-04T06:35:30.674Z,111.46
2022-08-04T06:36:30.684Z,111.78
2022-08-04T06:37:42.438Z,111.46
2022-08-04T06:38:31.642Z,110.49
2022-08-04T06:39:30.923Z,111.78
2022-08-04T06:40:33.230Z,111.78
2022-08-04T06:41:30.623Z,111.46
2022-08-04T06:42:30.582Z,111.46
2022-08-04T06:43:32.187Z,111.46
2022-08-04T06:44:30.560Z,111.46
2022-08-04T06:45:30.550Z,111.78
2022-08-04T06:46:30.555Z,111.78
2022-08-04T06:47:30.544Z,111.78
2022-08-04T06:48:33.110Z,111.46
2022-08-04T06:49:30.509Z,111.46
2022-08-04T06:51:27.497Z,111.46
2022-08-04T06:51:38.017Z,111.78
2022-08-04T06:52:31.547Z,111.46
2022-08-04T06:53:30.605Z,111.78
2022-08-04T06:54:30.535Z,111.46
2022-08-04T06:55:31.573Z,111.46
2022-08-04T06:56:30.425Z,111.46
2022-08-04T06:57:30.392Z,111.46
2022-08-04T06:58:30.523Z,111.46
2022-08-04T06:59:31.336Z,111.13
2022-08-04T07:00:30.617Z,111.78
2022-08-04T07:01:30.617Z,111.78
2022-08-04T07:02:34.600Z,111.78
2022-08-04T07:03:30.492Z,111.78
2022-08-04T07:04:30.377Z,111.78
2022-08-04T07:05:30.287Z,110.81
2022-08-04T07:06:31.177Z,111.78
2022-08-04T07:07:37.285Z,111.78
2022-08-04T07:08:31.426Z,111.78
2022-08-04T07:09:30.234Z,111.13
2022-08-04T07:10:30.358Z,111.78
2022-08-04T07:11:39.462Z,112.10
2022-08-04T07:12:31.325Z,111.78
2022-08-04T07:13:30.421Z,111.46
2022-08-04T07:14:30.247Z,112.10
2022-08-04T07:15:30.157Z,111.78
2022-08-04T07:16:30.958Z,111.46
2022-08-04T07:17:34.669Z,111.78
2022-08-04T07:18:30.218Z,111.78
2022-08-04T07:19:30.113Z,111.78
2022-08-04T07:20:30.450Z,112.10
2022-08-04T07:21:31.108Z,111.78
2022-08-04T07:22:30.167Z,112.10
2022-08-04T07:23:30.169Z,112.10
2022-08-04T07:24:30.389Z,111.46
2022-08-04T07:25:59.842Z,111.78
2022-08-04T07:26:31.030Z,111.46
2022-08-04T07:27:48.400Z,112.10
2022-08-04T07:28:31.016Z,111.78
2022-08-04T07:29:30.021Z,111.78
2022-08-04T07:30:29.951Z,112.10
2022-08-04T07:31:35.392Z,112.10
2022-08-04T07:32:31.005Z,112.10
2022-08-04T07:33:30.045Z,112.10
2022-08-04T07:34:29.901Z,112.10
2022-08-04T07:36:04.641Z,112.10
2022-08-04T07:36:36.047Z,111.78
2022-08-04T07:37:38.946Z,112.10
2022-08-04T07:38:30.894Z,112.10
2022-08-04T07:39:30.098Z,112.10
2022-08-04T07:40:29.842Z,112.10
2022-08-04T07:41:37.380Z,111.78
2022-08-04T07:42:30.803Z,112.10
2022-08-04T07:43:29.826Z,112.10
2022-08-04T07:44:29.883Z,112.10
2022-08-04T07:45:29.763Z,111.78
2022-08-04T07:46:31.185Z,112.10
2022-08-04T07:47:30.221Z,112.10
2022-08-04T07:48:29.715Z,112.10
2022-08-04T07:49:56.787Z,112.10
2022-08-04T07:50:30.825Z,112.10
2022-08-04T07:51:30.016Z,112.10
2022-08-04T07:52:30.618Z,112.10
2022-08-04T07:53:55.047Z,112.42
2022-08-04T07:54:30.656Z,112.10
2022-08-04T07:55:29.787Z,112.42
2022-08-04T07:56:29.667Z,112.42
2022-08-04T07:57:41.110Z,112.42
2022-08-04T07:58:30.694Z,112.10
2022-08-04T07:59:29.783Z,112.42
2022-08-04T08:00:29.718Z,112.10
2022-08-04T08:01:29.708Z,112.42
2022-08-04T08:02:29.569Z,112.42
2022-08-04T08:03:29.555Z,112.42
2022-08-04T08:04:29.529Z,112.42
2022-08-04T08:05:29.510Z,112.42
2022-08-04T08:06:33.231Z,112.10
2022-08-04T08:07:29.509Z,112.10
2022-08-04T08:08:29.469Z,112.42
2022-08-04T08:09:29.455Z,112.42
2022-08-04T08:10:29.441Z,112.42
2022-08-04T08:12:35.762Z,112.10
2022-08-04T08:12:38.886Z,112.74
2022-08-04T08:13:33.275Z,112.42
2022-08-04T08:14:29.382Z,112.74
2022-08-04T08:15:29.371Z,112.42
2022-08-04T08:16:29.362Z,112.42
2022-08-04T08:17:29.374Z,112.42
2022-08-04T08:18:29.334Z,112.42
2022-08-04T08:19:29.363Z,112.42
2022-08-04T08:20:30.356Z,112.42
2022-08-04T08:21:29.362Z,112.74
2022-08-04T08:22:29.310Z,112.42
2022-08-04T08:23:29.274Z,112.42
2022-08-04T08:24:30.100Z,112.42
2022-08-04T08:25:29.273Z,112.10
2022-08-04T08:26:29.232Z,112.42
2022-08-04T08:27:29.253Z,112.42
2022-08-04T08:28:29.205Z,112.42
2022-08-04T08:29:29.245Z,112.42
2022-08-04T08:30:31.644Z,112.74
2022-08-04T08:31:57.701Z,112.42
2022-08-04T08:32:30.187Z,112.42
2022-08-04T08:33:29.156Z,112.42
2022-08-04T08:34:29.326Z,112.42
2022-08-04T08:35:29.185Z,112.42
2022-08-04T08:36:32.832Z,112.42
2022-08-04T08:37:32.525Z,112.74
2022-08-04T08:38:29.098Z,112.42
2022-08-04T08:39:29.121Z,112.42
2022-08-04T08:40:40.767Z,112.42
2022-08-04T08:41:30.051Z,112.74
2022-08-04T08:42:29.058Z,112.42
2022-08-04T08:44:03.854Z,112.42
2022-08-04T08:44:37.828Z,112.42
2022-08-04T08:45:30.000Z,112.74
2022-08-04T08:46:48.403Z,112.74
2022-08-04T08:47:29.999Z,112.74
2022-08-04T08:48:30.110Z,112.42
2022-08-04T08:50:01.835Z,112.74
2022-08-04T08:50:29.931Z,112.74
2022-08-04T08:51:29.071Z,112.42
2022-08-04T08:52:57.457Z,112.42
2022-08-04T08:53:29.891Z,112.74
2022-08-04T08:54:28.882Z,112.42
2022-08-04T08:55:28.873Z,112.74
2022-08-04T08:56:31.044Z,112.74
2022-08-04T08:57:29.083Z,112.74
2022-08-04T08:58:28.833Z,112.74
2022-08-04T08:59:28.823Z,112.42
2022-08-04T09:00:31.875Z,112.42
2022-08-04T09:01:28.864Z,112.74
2022-08-04T09:02:28.828Z,112.42
2022-08-04T09:03:28.774Z,112.42
2022-08-04T09:04:31.973Z,112.74
2022-08-04T09:05:28.797Z,112.74
2022-08-04T09:06:28.825Z,112.74
2022-08-04T09:07:28.941Z,112.42
2022-08-04T09:08:29.965Z,112.74
2022-08-04T09:09:28.696Z,112.74
2022-08-04T09:10:33.077Z,112.42
2022-08-04T09:11:28.667Z,112.74
2022-08-04T09:12:28.684Z,112.42
2022-08-04T09:13:29.446Z,112.42
2022-08-04T09:14:28.628Z,112.74
2022-08-04T09:15:28.810Z,112.74
2022-08-04T09:16:28.608Z,112.74
2022-08-04T09:17:28.737Z,112.74
2022-08-04T09:18:28.590Z,112.74
2022-08-04T09:19:38.305Z,112.42
2022-08-04T09:20:29.552Z,112.74
2022-08-04T09:21:28.638Z,112.74
2022-08-04T09:22:28.551Z,112.42
2022-08-04T09:23:28.523Z,112.42
2022-08-04T09:24:36.599Z,112.42
2022-08-04T09:25:29.499Z,112.74
2022-08-04T09:26:28.561Z,112.74
2022-08-04T09:27:28.504Z,112.74
2022-08-04T09:28:52.438Z,112.42
2022-08-04T09:29:29.471Z,112.74
2022-08-04T09:30:28.429Z,112.42
2022-08-04T09:31:28.422Z,112.74
2022-08-04T09:32:29.451Z,112.42
2022-08-04T09:33:44.642Z,112.42
2022-08-04T09:34:29.381Z,112.74
2022-08-04T09:35:28.394Z,112.74
2022-08-04T09:36:28.429Z,112.42
2022-08-04T09:37:28.452Z,112.42
2022-08-04T09:38:28.332Z,112.74
2022-08-04T09:39:28.365Z,112.42
2022-08-04T09:40:29.372Z,112.42
2022-08-04T09:41:48.820Z,112.74
2022-08-04T09:42:30.342Z,112.74
2022-08-04T09:43:28.276Z,112.74
2022-08-04T09:44:52.527Z,112.42
2022-08-04T09:45:42.455Z,112.74
2022-08-04T09:46:29.250Z,112.42
2022-08-04T09:47:39.361Z,112.42
2022-08-04T09:48:29.208Z,112.74
2022-08-04T09:49:28.339Z,112.74
2022-08-04T09:50:28.178Z,112.42
2022-08-04T09:51:58.419Z,112.42
2022-08-04T09:52:29.199Z,112.42
2022-08-04T09:53:28.153Z,112.74
2022-08-04T09:54:30.707Z,112.74
2022-08-04T09:55:28.128Z,112.42
2022-08-04T09:56:28.170Z,112.42
2022-08-04T09:57:28.141Z,112.42
2022-08-04T09:58:28.104Z,112.42
2022-08-04T09:59:28.071Z,112.74
2022-08-04T10:00:38.491Z,112.74
2022-08-04T10:01:29.113Z,112.74
2022-08-04T10:02:28.084Z,112.74
2022-08-04T10:03:28.103Z,112.74
2022-08-04T10:04:28.022Z,112.74
2022-08-04T10:05:28.528Z,112.74
2022-08-04T10:06:28.023Z,112.74
2022-08-04T10:07:28.024Z,112.74
2022-08-04T10:08:27.954Z,112.74
2022-08-04T10:09:28.070Z,112.74
2022-08-04T10:10:27.944Z,112.74
2022-08-04T10:11:27.977Z,112.74
2022-08-04T10:12:27.938Z,112.74
2022-08-04T10:13:27.905Z,112.74
2022-08-04T10:14:27.887Z,112.10
2022-08-04T10:15:27.887Z,112.74
2022-08-04T10:16:27.866Z,112.74
2022-08-04T10:17:28.167Z,112.74
2022-08-04T10:18:27.837Z,112.42
2022-08-04T10:19:27.918Z,112.74
2022-08-04T10:20:44.305Z,112.42
2022-08-04T10:21:28.810Z,112.74
2022-08-04T10:22:29.501Z,112.74
2022-08-04T10:23:27.803Z,112.42
2022-08-04T10:24:27.851Z,112.42
2022-08-04T10:26:03.686Z,112.74
2022-08-04T10:26:29.143Z,112.74
2022-08-04T10:27:28.151Z,112.74
2022-08-04T10:28:27.722Z,112.42
2022-08-04T10:29:27.713Z,112.74
2022-08-04T10:30:27.774Z,112.74
2022-08-04T10:31:27.717Z,112.74
2022-08-04T10:32:27.723Z,112.42
2022-08-04T10:33:27.664Z,112.74
2022-08-04T10:34:27.646Z,112.74
2022-08-04T10:35:27.634Z,112.74
2022-08-04T10:36:27.669Z,112.74
2022-08-04T10:37:53.258Z,112.42
2022-08-04T10:38:28.595Z,112.74
2022-08-04T10:39:43.749Z,112.74
2022-08-04T10:40:28.577Z,112.74
2022-08-04T10:41:27.574Z,112.74
2022-08-04T10:42:27.576Z,112.42
2022-08-04T10:43:27.712Z,112.42
2022-08-04T10:44:28.401Z,112.74
2022-08-04T10:45:27.522Z,112.74
2022-08-04T10:46:27.507Z,112.42
2022-08-04T10:47:27.550Z,112.74
2022-08-04T10:48:34.923Z,112.42
2022-08-04T10:49:28.469Z,112.42
2022-08-04T10:50:27.458Z,112.74
2022-08-04T10:51:27.441Z,112.74
2022-08-04T10:52:28.430Z,112.42
2022-08-04T10:53:27.422Z,112.42
2022-08-04T10:54:27.410Z,112.74
2022-08-04T10:56:06.552Z,112.74
2022-08-04T10:56:28.390Z,112.42
2022-08-04T10:57:27.401Z,112.42
2022-08-04T10:58:47.572Z,112.74
2022-08-04T10:59:28.489Z,112.74
2022-08-04T11:00:27.342Z,112.74
2022-08-04T11:02:02.941Z,112.74
2022-08-04T11:02:28.454Z,112.74
2022-08-04T11:03:27.421Z,112.42
2022-08-04T11:04:28.084Z,112.74
2022-08-04T11:05:27.274Z,112.74
2022-08-04T11:06:27.268Z,112.74
2022-08-04T11:07:27.576Z,112.74
2022-08-04T11:08:27.304Z,112.74
2022-08-04T11:09:27.525Z,112.74
2022-08-04T11:10:27.385Z,113.07
2022-08-04T11:11:27.216Z,112.74
2022-08-04T11:12:28.119Z,113.07
2022-08-04T11:13:29.772Z,113.07
2022-08-04T11:14:27.278Z,112.74
2022-08-04T11:15:27.431Z,112.74
2022-08-04T11:16:27.229Z,112.74
2022-08-04T11:17:27.375Z,112.42
2022-08-04T11:18:27.378Z,112.74
2022-08-04T11:19:42.682Z,112.42
2022-08-04T11:20:36.394Z,112.42
2022-08-04T11:21:28.091Z,112.74
2022-08-04T11:22:27.319Z,112.74
2022-08-04T11:23:27.242Z,112.74
2022-08-04T11:24:27.061Z,112.74
2022-08-04T11:25:27.122Z,112.74
2022-08-04T11:26:27.201Z,113.07
2022-08-04T11:27:27.355Z,112.74
2022-08-04T11:28:30.375Z,112.74
2022-08-04T11:29:28.091Z,112.74
2022-08-04T11:30:26.992Z,112.74
2022-08-04T11:31:27.025Z,112.74
2022-08-04T11:32:27.316Z,112.74
2022-08-04T11:33:26.954Z,112.74
2022-08-04T11:34:27.065Z,112.74
2022-08-04T11:35:26.985Z,112.74
2022-08-04T11:36:27.088Z,112.74
2022-08-04T11:37:27.043Z,112.42
2022-08-04T11:38:31.898Z,112.42
2022-08-04T11:39:27.970Z,112.42
2022-08-04T11:40:26.867Z,112.74
2022-08-04T11:41:27.047Z,112.42
2022-08-04T11:42:26.868Z,113.07
2022-08-04T11:44:02.734Z,112.42
2022-08-04T11:44:27.829Z,112.74
2022-08-04T11:45:27.088Z,112.74
2022-08-04T11:46:26.809Z,112.74
2022-08-04T11:47:26.774Z,112.74
2022-08-04T11:48:26.800Z,112.74
2022-08-04T11:49:26.780Z,112.74
2022-08-04T11:50:26.778Z,112.74
2022-08-04T11:51:26.738Z,112.74
2022-08-04T11:52:26.720Z,112.42
2022-08-04T11:53:26.731Z,112.42
2022-08-04T11:54:27.764Z,112.42
2022-08-04T11:55:26.684Z,112.74
2022-08-04T11:56:36.820Z,112.42
2022-08-04T11:57:35.247Z,112.74
2022-08-04T11:58:27.673Z,112.74
2022-08-04T11:59:26.634Z,112.74
2022-08-04T12:00:26.649Z,112.42
2022-08-04T12:01:26.604Z,112.74
2022-08-04T12:02:26.691Z,112.74
2022-08-04T12:03:26.615Z,112.74
2022-08-04T12:04:26.578Z,112.74
2022-08-04T12:05:36.016Z,112.42
2022-08-04T12:06:27.566Z,112.42
2022-08-04T12:07:31.081Z,112.42
2022-08-04T12:08:27.598Z,112.74
2022-08-04T12:09:26.518Z,112.74
2022-08-04T12:10:41.826Z,112.42
2022-08-04T12:11:27.498Z,112.42
2022-08-04T12:12:26.490Z,112.42
2022-08-04T12:13:26.506Z,112.42
2022-08-04T12:14:26.480Z,112.74
2022-08-04T12:15:26.444Z,112.74
2022-08-04T12:16:30.174Z,112.74
2022-08-04T12:17:26.420Z,112.74
2022-08-04T12:18:27.447Z,112.74
2022-08-04T12:19:26.397Z,112.74
2022-08-04T12:20:38.207Z,112.74
2022-08-04T12:21:27.370Z,113.07
2022-08-04T12:22:31.288Z,113.07
2022-08-04T12:23:27.450Z,112.74
2022-08-04T12:24:26.342Z,112.74
2022-08-04T12:25:26.333Z,112.74
2022-08-04T12:26:26.376Z,112.74
2022-08-04T12:27:30.694Z,112.74
2022-08-04T12:28:26.334Z,112.74